Time;durP1;ratioP1;P1;durP2;ratioP2;P2;SDS_P1;SDS_P2;PMS_P1;PMS_P2;Temp;Humidity;BMP_temperature;BMP_pressure;BME280_temperature;BME280_humidity;BME280_pressure;Samples;Min_cycle;Max_cycle;Signal;HPM_P1;HPM_P2
2022/12/04 00:00:09;;;;;;;127.28;64.05;;;;;;;1.16;100.00;100139.47;5092693;28;20531;-77
2022/12/04 00:02:34;;;;;;;120.90;61.72;;;;;;;1.25;100.00;100143.75;5092147;28;20491;-77
2022/12/04 00:05:01;;;;;;;118.88;62.42;;;;;;;1.25;100.00;100148.88;5092166;28;20022;-77
2022/12/04 00:07:26;;;;;;;133.82;69.00;;;;;;;1.17;100.00;100124.94;5092539;28;20030;-77
2022/12/04 00:09:51;;;;;;;109.78;58.63;;;;;;;1.19;100.00;100139.50;5092118;28;20012;-77
2022/12/04 00:12:17;;;;;;;137.10;68.07;;;;;;;1.26;100.00;100148.03;5092637;28;20043;-77
2022/12/04 00:14:42;;;;;;;127.30;67.75;;;;;;;1.28;100.00;100158.31;5092276;28;20069;-77
2022/12/04 00:17:08;;;;;;;121.95;61.83;;;;;;;1.31;100.00;100155.75;5092440;28;20042;-77
2022/12/04 00:19:33;;;;;;;139.43;71.97;;;;;;;1.32;100.00;100157.44;5092616;28;20020;-77
2022/12/04 00:21:58;;;;;;;133.57;66.15;;;;;;;1.28;100.00;100156.59;5091991;28;20031;-78
2022/12/04 00:24:24;;;;;;;140.25;71.82;;;;;;;1.31;100.00;100159.16;5092097;28;20391;-77
2022/12/04 00:26:49;;;;;;;124.32;63.17;;;;;;;1.27;100.00;100141.19;5092118;28;20031;-77
2022/12/04 00:29:14;;;;;;;132.68;72.78;;;;;;;1.32;100.00;100136.91;5091941;28;20017;-77
2022/12/04 00:31:40;;;;;;;128.35;67.35;;;;;;;1.25;100.00;100131.78;5073901;28;20157;-77
2022/12/04 00:34:05;;;;;;;139.05;69.05;;;;;;;1.33;100.00;100149.72;5092136;28;20074;-77
2022/12/04 00:36:31;;;;;;;119.72;63.67;;;;;;;1.34;100.00;100143.72;5091982;28;20073;-77
2022/12/04 00:38:59;;;;;;;133.18;70.43;;;;;;;1.32;100.00;100130.06;5091785;28;20020;-78
2022/12/04 00:41:27;;;;;;;129.77;68.72;;;;;;;1.32;100.00;100126.66;5092207;28;20026;-77
2022/12/04 00:43:52;;;;;;;138.38;69.50;;;;;;;1.32;100.00;100121.53;5094133;28;20023;-77
2022/12/04 00:46:18;;;;;;;124.47;66.82;;;;;;;1.31;100.00;100115.53;5096410;28;20517;-78
2022/12/04 00:48:44;;;;;;;121.63;63.80;;;;;;;1.29;100.00;100122.38;5096006;28;20055;-78
2022/12/04 00:51:12;;;;;;;116.53;64.28;;;;;;;1.32;100.00;100134.34;5096196;28;20059;-78
2022/12/04 00:53:38;;;;;;;125.72;67.10;;;;;;;1.34;100.00;100138.59;5096072;28;20037;-78
2022/12/04 00:56:06;;;;;;;125.78;63.95;;;;;;;1.32;100.00;100108.69;5095914;28;20078;-78
2022/12/04 00:58:31;;;;;;;115.65;64.10;;;;;;;1.30;100.00;100098.41;5096189;28;20023;-78
2022/12/04 01:01:06;;;;;;;112.50;59.90;;;;;;;1.34;100.00;100106.97;5095628;28;20119;-78
2022/12/04 01:03:32;;;;;;;107.70;56.83;;;;;;;1.28;100.00;100110.41;5095988;28;20016;-78
2022/12/04 01:05:57;;;;;;;108.00;58.70;;;;;;;1.42;100.00;100129.19;5095636;28;20024;-78
2022/12/04 01:08:23;;;;;;;117.22;64.07;;;;;;;1.30;100.00;100110.38;5095952;28;20020;-78
2022/12/04 01:10:48;;;;;;;123.10;63.53;;;;;;;1.42;100.00;100128.34;5095750;28;20047;-78
2022/12/04 01:13:14;;;;;;;118.97;63.38;;;;;;;1.45;100.00;100129.19;5095911;28;20525;-78
2022/12/04 01:15:42;;;;;;;114.90;61.42;;;;;;;1.39;100.00;100116.38;5095763;28;20016;-77
2022/12/04 01:18:08;;;;;;;108.78;57.13;;;;;;;1.42;100.00;100112.94;5095605;28;20012;-78
2022/12/04 01:20:34;;;;;;;111.15;60.38;;;;;;;1.44;100.00;100121.50;5095651;28;20439;-78
2022/12/04 01:22:59;;;;;;;112.63;60.78;;;;;;;1.48;100.00;100110.38;5095304;28;20048;-78
2022/12/04 01:25:25;;;;;;;116.95;60.75;;;;;;;1.42;100.00;100100.94;5095775;28;20031;-78
2022/12/04 01:27:50;;;;;;;119.45;63.83;;;;;;;1.47;100.00;100112.06;5095277;28;20027;-78
2022/12/04 01:30:15;;;;;;;120.97;64.10;;;;;;;1.48;100.00;100100.09;5095531;28;20059;-78
2022/12/04 01:32:41;;;;;;;116.68;63.90;;;;;;;1.37;100.00;100087.28;5095301;28;20117;-78
2022/12/04 01:35:07;;;;;;;103.65;55.28;;;;;;;1.46;100.00;100096.66;5094920;28;20581;-78
2022/12/04 01:37:32;;;;;;;117.40;61.42;;;;;;;1.43;100.00;100092.41;5095467;28;20046;-78
2022/12/04 01:39:57;;;;;;;115.00;60.00;;;;;;;1.47;100.00;100103.50;5095233;28;20069;-78
2022/12/04 01:42:23;;;;;;;119.35;64.40;;;;;;;1.42;100.00;100075.28;5095292;28;20013;-78
2022/12/04 01:45:25;;;;;;;125.75;66.05;;;;;;;1.50;100.00;100093.22;5094991;28;20032;-78
2022/12/04 01:47:54;;;;;;;110.18;55.72;;;;;;;1.43;100.00;100076.13;5094771;28;20427;-78
2022/12/04 01:50:19;;;;;;;112.70;62.42;;;;;;;1.43;100.00;100078.69;5095147;28;20016;-78
2022/12/04 01:52:45;;;;;;;106.68;57.97;;;;;;;1.41;100.00;100077.88;5094901;28;20024;-77
2022/12/04 01:55:10;;;;;;;116.63;63.80;;;;;;;1.42;100.00;100092.41;5094151;28;20093;-78
2022/12/04 01:57:37;;;;;;;100.88;56.47;;;;;;;1.33;100.00;100084.72;5094722;28;20487;-78
2022/12/04 02:00:12;;;;;;;108.88;59.05;;;;;;;1.35;100.00;100090.69;5094357;28;20030;-78
2022/12/04 02:02:44;;;;;;;109.63;61.83;;;;;;;1.30;100.00;100097.56;5094981;28;20040;-78
2022/12/04 02:05:13;;;;;;;117.60;66.03;;;;;;;1.22;100.00;100092.44;5094735;28;20541;-78
2022/12/04 02:07:39;;;;;;;109.25;58.38;;;;;;;1.22;100.00;100095.00;5095150;28;20031;-78
2022/12/04 02:10:07;;;;;;;124.05;66.78;;;;;;;1.21;100.00;100088.16;5094351;28;20024;-78
2022/12/04 02:12:48;;;;;;;108.47;61.58;;;;;;;1.22;100.00;100089.88;5094535;28;20375;-78
2022/12/04 02:15:37;;;;;;;112.30;62.58;;;;;;;1.23;100.00;100097.56;5094767;28;20024;-78
2022/12/04 02:18:15;;;;;;;111.72;60.65;;;;;;;1.24;100.00;100095.88;5094630;28;20052;-78
2022/12/04 02:21:08;;;;;;;130.38;74.68;;;;;;;1.27;100.00;100092.44;5094744;28;20024;-78
2022/12/04 02:23:42;;;;;;;125.97;67.30;;;;;;;1.31;100.00;100094.16;5094456;28;20035;-78
2022/12/04 02:26:10;;;;;;;120.13;64.35;;;;;;;1.34;100.00;100097.53;5094308;28;20485;-78
2022/12/04 02:28:38;;;;;;;142.75;74.60;;;;;;;1.37;100.00;100089.84;5094161;28;20024;-78
2022/12/04 02:31:11;;;;;;;141.70;75.35;;;;;;;1.37;100.00;100096.69;5094275;28;20036;-78
2022/12/04 02:33:45;;;;;;;111.28;62.50;;;;;;;1.40;100.00;100101.81;5094235;28;20099;-78
2022/12/04 02:36:23;;;;;;;124.57;68.32;;;;;;;1.40;100.00;100094.97;5094120;28;20043;-78
2022/12/04 02:39:02;;;;;;;131.73;72.93;;;;;;;1.42;100.00;100106.09;5094042;28;20024;-78
2022/12/04 02:41:42;;;;;;;111.60;61.60;;;;;;;1.39;100.00;100082.13;5094168;28;20027;-78
2022/12/04 02:44:20;;;;;;;115.03;64.57;;;;;;;1.42;100.00;100074.44;5093726;28;20036;-78
2022/12/04 02:46:49;;;;;;;112.47;62.83;;;;;;;1.43;100.00;100068.44;5094156;28;20020;-78
2022/12/04 02:49:32;;;;;;;104.35;59.80;;;;;;;1.52;100.00;100082.94;5093922;28;20040;-78
2022/12/04 02:51:59;;;;;;;113.65;62.15;;;;;;;1.55;100.00;100088.94;5093637;28;20024;-78
2022/12/04 02:54:38;;;;;;;127.43;66.90;;;;;;;1.53;100.00;100076.97;5093680;28;20491;-78
2022/12/04 02:57:08;;;;;;;116.38;62.58;;;;;;;1.60;100.00;100082.09;5093712;28;20106;-78
2022/12/04 02:59:40;;;;;;;106.47;57.38;;;;;;;1.56;100.00;100075.25;5093671;28;20452;-78
2022/12/04 03:02:14;;;;;;;112.25;61.95;;;;;;;1.55;100.00;100078.66;5093284;28;20048;-78
2022/12/04 03:04:41;;;;;;;106.40;61.88;;;;;;;1.68;100.00;100095.72;5093512;28;20020;-78
2022/12/04 03:07:13;;;;;;;110.40;60.08;;;;;;;1.64;100.00;100086.34;5093504;28;20024;-78
2022/12/04 03:09:46;;;;;;;107.38;59.92;;;;;;;1.63;100.00;100076.94;5093487;28;20020;-78
2022/12/04 03:12:19;;;;;;;105.70;59.35;;;;;;;1.68;100.00;100077.75;5093276;28;20103;-78
2022/12/04 03:15:04;;;;;;;124.50;67.32;;;;;;;1.76;100.00;100088.00;5093452;28;20068;-78
2022/12/04 03:17:40;;;;;;;100.60;55.67;;;;;;;1.76;100.00;100088.00;5075352;28;20027;-78
2022/12/04 03:20:09;;;;;;;101.03;57.05;;;;;;;1.73;100.00;100080.34;5093047;28;20051;-78
2022/12/04 03:22:39;;;;;;;107.25;59.92;;;;;;;1.77;100.00;100092.31;5093628;28;20020;-78
2022/12/04 03:25:06;;;;;;;112.47;61.58;;;;;;;1.72;100.00;100074.31;5092942;28;20024;-78
2022/12/04 03:28:07;;;;;;;137.77;78.45;;;;;;;1.76;100.00;100090.56;5093188;28;20096;-78
2022/12/04 03:30:42;;;;;;;139.40;80.32;;;;;;;1.64;100.00;100086.34;4991249;28;20030;-78
2022/12/04 03:33:33;;;;;;;123.13;75.85;;;;;;;1.59;100.00;100089.78;4991070;28;20038;-78
2022/12/04 03:36:29;;;;;;;147.82;91.30;;;;;;;1.55;100.00;100095.78;4990692;28;20046;-78
2022/12/04 03:39:05;;;;;;;193.68;138.02;;;;;;;1.35;100.00;100077.84;4990324;28;20052;-78
2022/12/04 03:41:45;;;;;;;396.50;229.23;;;;;;;1.42;100.00;100093.25;4991072;28;20030;-78
2022/12/04 03:44:17;;;;;;;1175.75;765.15;;;;;;;1.32;100.00;100089.00;4990750;28;20030;-78
2022/12/04 03:46:54;;;;;;;185.55;110.00;;;;;;;1.24;100.00;100078.75;4990964;28;20620;-78
2022/12/04 03:49:41;;;;;;;308.15;160.20;;;;;;;1.25;100.00;100084.72;4990868;28;20033;-78
2022/12/04 03:52:23;;;;;;;501.17;327.45;;;;;;;1.16;100.00;100074.50;4990817;28;20058;-78
2022/12/04 03:54:59;;;;;;;529.92;364.63;;;;;;;1.16;100.00;100072.78;4991137;28;20045;-78
2022/12/04 03:57:29;;;;;;;315.77;197.80;;;;;;;1.09;100.00;100067.66;4990871;28;20150;-78
2022/12/04 04:00:04;;;;;;;212.90;144.00;;;;;;;1.06;100.00;100070.25;4990497;28;20073;-78
2022/12/04 04:02:33;;;;;;;160.55;99.70;;;;;;;0.94;100.00;100056.56;4990574;28;20070;-78
2022/12/04 04:05:01;;;;;;;524.05;311.92;;;;;;;1.04;100.00;100075.34;4990618;28;20045;-78
2022/12/04 04:07:40;;;;;;;131.27;77.70;;;;;;;0.93;100.00;100062.56;5045978;28;20089;-77
2022/12/04 04:10:21;;;;;;;138.73;83.10;;;;;;;1.00;100.00;100077.06;5092028;28;20031;-77
2022/12/04 04:24:14;;;;;;;132.57;76.80;;;;;;;0.85;100.00;100048.03;5092066;28;20035;-78
2022/12/04 04:26:44;;;;;;;118.18;67.00;;;;;;;0.85;100.00;100050.59;5092337;28;20089;-78
2022/12/04 04:29:10;;;;;;;110.15;61.00;;;;;;;0.85;100.00;100051.44;5091965;28;20459;-78
2022/12/04 04:31:42;;;;;;;122.85;69.32;;;;;;;0.89;100.00;100054.88;5092084;28;20379;-78
2022/12/04 04:34:27;;;;;;;129.15;79.78;;;;;;;0.81;100.00;100047.19;5091849;28;20028;-78
2022/12/04 04:37:12;;;;;;;111.78;63.63;;;;;;;0.85;100.00;100056.59;5092176;28;20024;-78
2022/12/04 04:39:52;;;;;;;109.20;61.55;;;;;;;0.76;100.00;100038.66;5092180;28;20024;-78
2022/12/04 04:42:32;;;;;;;119.60;65.80;;;;;;;0.83;100.00;100060.84;5091871;28;20109;-78
2022/12/04 04:45:10;;;;;;;99.82;55.38;;;;;;;0.87;100.00;100064.25;5091632;28;20541;-78
2022/12/04 04:47:50;;;;;;;97.10;58.40;;;;;;;0.90;100.00;100066.84;5092108;28;20020;-78
2022/12/04 04:50:16;;;;;;;;;;;;;;;0.96;100.00;100077.06;5092105;28;20016;-78
2022/12/04 04:52:47;;;;;;;102.05;57.40;;;;;;;0.97;100.00;100079.66;5091923;28;20270;-78
2022/12/04 04:55:14;;;;;;;112.18;62.83;;;;;;;0.97;100.00;100063.41;5091591;28;20024;-78
2022/12/04 04:57:40;;;;;;;120.18;72.18;;;;;;;1.02;100.00;100063.41;5092053;28;20016;-78
2022/12/04 05:00:18;;;;;;;115.05;61.92;;;;;;;0.95;100.00;100057.41;5091748;28;20028;-78
2022/12/04 05:02:44;;;;;;;117.45;67.85;;;;;;;1.04;100.00;100066.81;5091830;28;20036;-78
2022/12/04 05:05:11;;;;;;;105.40;64.63;;;;;;;0.95;100.00;100049.72;5091518;28;20022;-78
2022/12/04 05:07:36;;;;;;;106.68;62.60;;;;;;;0.94;100.00;100054.00;5091708;28;20016;-78
2022/12/04 05:10:03;;;;;;;108.32;66.57;;;;;;;0.97;100.00;100060.84;5091577;28;20020;-78
2022/12/04 05:12:28;;;;;;;106.43;63.30;;;;;;;0.94;100.00;100065.97;5091839;28;20051;-78
2022/12/04 05:14:54;;;;;;;115.55;65.03;;;;;;;0.93;100.00;100061.72;5091646;28;20052;-78
2022/12/04 05:17:19;;;;;;;97.57;56.75;;;;;;;0.88;100.00;100060.84;5091367;28;20020;-78
2022/12/04 05:19:53;;;;;;;108.88;60.20;;;;;;;0.92;100.00;100073.66;5091805;28;20031;-77
2022/12/04 05:22:21;;;;;;;100.45;56.88;;;;;;;0.91;100.00;100071.94;5091348;28;20052;-78
2022/12/04 05:24:46;;;;;;;100.95;58.88;;;;;;;0.87;100.00;100061.69;5091714;28;20022;-78
2022/12/04 05:27:12;;;;;;;100.32;56.55;;;;;;;0.80;100.00;100052.28;5091532;28;20166;-78
2022/12/04 05:29:37;;;;;;;93.70;56.08;;;;;;;0.81;100.00;100060.00;5091667;28;20403;-78
2022/12/04 05:32:03;;;;;;;97.45;56.60;;;;;;;0.79;100.00;100053.16;5095206;28;20464;-77
2022/12/04 05:34:28;;;;;;;109.10;63.42;;;;;;;0.84;100.00;100061.69;5095306;28;20570;-77
2022/12/04 05:36:53;;;;;;;114.05;60.92;;;;;;;0.86;100.00;100065.97;5095448;28;20026;-78
2022/12/04 05:39:19;;;;;;;113.88;62.65;;;;;;;0.78;100.00;100052.31;5095163;28;20544;-78
2022/12/04 05:41:44;;;;;;;108.43;62.97;;;;;;;0.75;100.00;100049.72;5095080;28;20051;-78
2022/12/04 05:44:09;;;;;;;101.95;57.70;;;;;;;0.77;100.00;100060.84;5095029;28;20027;-78
2022/12/04 05:46:35;;;;;;;107.22;60.17;;;;;;;0.59;100.00;100045.47;5095205;28;20020;-78
2022/12/04 05:49:00;;;;;;;107.15;62.90;;;;;;;0.62;100.00;100053.16;5094801;28;20024;-78
2022/12/04 05:51:26;;;;;;;96.70;55.42;;;;;;;0.60;100.00;100060.00;5094788;28;20016;-78
2022/12/04 05:53:52;;;;;;;100.28;60.47;;;;;;;0.52;100.00;100052.31;5095159;28;20051;-78
2022/12/04 05:56:17;;;;;;;107.75;60.05;;;;;;;0.53;100.00;100054.00;5094897;28;20051;-78
2022/12/04 05:58:42;;;;;;;112.70;64.15;;;;;;;0.50;100.00;100052.28;5094559;28;20020;-78
2022/12/04 06:01:17;;;;;;;102.40;61.47;;;;;;;0.51;100.00;100068.53;5094429;28;20092;-78
2022/12/04 06:03:42;;;;;;;102.50;60.38;;;;;;;0.51;100.00;100055.72;5094762;28;20465;-78
2022/12/04 06:06:19;;;;;;;102.18;58.95;;;;;;;0.47;100.00;100061.72;5094449;28;20062;-78
2022/12/04 06:08:45;;;;;;;97.75;55.83;;;;;;;0.50;100.00;100071.94;5094725;28;20060;-78
2022/12/04 06:11:21;;;;;;;110.45;61.90;;;;;;;0.52;100.00;100074.53;5094458;28;20048;-78
2022/12/04 06:13:47;;;;;;;120.38;63.45;;;;;;;0.41;100.00;100072.78;5094621;28;20024;-78
2022/12/04 06:16:25;;;;;;;108.57;58.40;;;;;;;0.42;100.00;100076.19;5094357;28;20161;-78
2022/12/04 06:18:56;;;;;;;111.07;63.63;;;;;;;0.45;100.00;100063.41;5094741;28;20028;-78
2022/12/04 06:21:23;;;;;;;110.45;64.13;;;;;;;0.47;100.00;100062.56;5094420;28;20032;-78
2022/12/04 06:23:49;;;;;;;109.65;63.38;;;;;;;0.52;100.00;100079.66;5094479;28;20046;-78
2022/12/04 06:26:15;;;;;;;110.32;62.00;;;;;;;0.50;100.00;100075.34;5094146;28;20363;-78
2022/12/04 06:28:40;;;;;;;100.15;57.72;;;;;;;0.53;100.00;100094.16;5076034;28;20020;-78
2022/12/04 06:31:09;;;;;;;100.80;56.92;;;;;;;0.44;100.00;100084.75;5094044;28;20030;-78
2022/12/04 06:33:34;;;;;;;105.88;58.38;;;;;;;0.42;100.00;100081.31;5094437;28;20024;-78
2022/12/04 06:36:05;;;;;;;101.72;55.45;;;;;;;0.47;100.00;100089.91;5094308;28;20031;-78
2022/12/04 06:38:32;;;;;;;91.75;55.92;;;;;;;0.43;100.00;100080.50;5094250;28;20019;-78
2022/12/04 06:40:58;;;;;;;97.68;55.60;;;;;;;0.44;100.00;100080.47;5093861;28;20024;-78
2022/12/04 06:43:24;;;;;;;94.95;54.38;;;;;;;0.48;100.00;100091.59;5075752;28;20027;-78
2022/12/04 06:46:14;;;;;;;99.20;53.88;;;;;;;0.49;100.00;100093.31;5093861;28;20020;-78
2022/12/04 06:48:40;;;;;;;94.82;53.67;;;;;;;0.50;100.00;100089.88;5093945;28;20476;-78
2022/12/04 06:51:17;;;;;;;92.25;54.38;;;;;;;0.56;100.00;100092.47;5093727;28;20035;-78
2022/12/04 06:53:42;;;;;;;100.57;55.22;;;;;;;0.61;100.00;100103.56;5093821;28;20023;-78
2022/12/04 06:56:11;;;;;;;98.07;55.08;;;;;;;0.71;100.00;100104.44;5093535;28;20028;-78
2022/12/04 06:58:37;;;;;;;99.32;56.85;;;;;;;0.72;100.00;100081.38;5093881;28;20027;-78
2022/12/04 07:01:08;;;;;;;100.25;60.80;;;;;;;0.89;100.00;100090.78;5093560;28;20491;-78
2022/12/04 07:03:33;;;;;;;;;;;;;;;0.97;100.00;100086.50;5094235;28;20016;-78
2022/12/04 07:05:58;;;;;;;387.63;228.52;;;;;;;0.90;100.00;100069.41;5093575;28;20022;-78
2022/12/04 07:08:24;;;;;;;136.38;83.82;;;;;;;1.11;100.00;100084.75;5093558;28;20409;-78
2022/12/04 07:10:49;;;;;;;104.60;60.40;;;;;;;1.11;100.00;100069.38;5093386;28;20451;-78
2022/12/04 07:13:14;;;;;;;110.53;63.03;;;;;;;1.16;100.00;100067.66;5093655;28;20492;-77
2022/12/04 07:15:40;;;;;;;107.53;65.68;;;;;;;1.18;100.00;100063.38;5093535;28;20027;-78
2022/12/04 07:18:05;;;;;;;107.45;59.92;;;;;;;1.27;100.00;100079.63;5093114;28;20064;-77
2022/12/04 07:20:31;;;;;;;98.38;56.33;;;;;;;1.39;100.00;100094.97;5093355;28;20031;-77
2022/12/04 07:22:56;;;;;;;94.68;57.35;;;;;;;1.44;100.00;100086.41;5093275;28;20102;-78
2022/12/04 07:25:22;;;;;;;112.38;62.92;;;;;;;1.43;100.00;100073.56;5092782;28;20141;-78
2022/12/04 07:27:47;;;;;;;107.63;61.90;;;;;;;1.45;100.00;100071.88;5093400;28;20069;-78
2022/12/04 07:30:13;;;;;;;101.10;62.28;;;;;;;1.53;100.00;100092.38;5092812;28;20032;-78
2022/12/04 07:32:38;;;;;;;94.97;57.25;;;;;;;1.53;100.00;100089.81;5093263;28;20024;-78
2022/12/04 07:35:04;;;;;;;115.18;64.15;;;;;;;1.49;100.00;100079.56;5092915;28;20024;-78
2022/12/04 07:37:30;;;;;;;108.45;59.53;;;;;;;1.58;100.00;100088.94;5092757;28;20065;-78
2022/12/04 07:39:56;;;;;;;101.65;61.08;;;;;;;1.57;100.00;100070.97;5093248;28;20036;-78
2022/12/04 07:42:22;;;;;;;95.90;57.08;;;;;;;1.71;100.00;100084.59;5093030;28;20028;-78
2022/12/04 07:44:47;;;;;;;97.47;57.42;;;;;;;1.80;100.00;100082.00;5093194;28;20429;-78
2022/12/04 07:47:13;;;;;;;107.85;63.38;;;;;;;1.83;100.00;100079.44;5092604;28;20016;-78
2022/12/04 07:49:38;;;;;;;115.63;67.93;;;;;;;1.88;100.00;100087.13;5092858;28;20060;-78
2022/12/04 07:52:04;;;;;;;122.50;72.55;;;;;;;1.95;100.00;100089.66;5092432;28;20045;-78
2022/12/04 07:54:30;;;;;;;105.18;62.83;;;;;;;2.02;100.00;100090.47;5091613;28;20024;-78
2022/12/04 07:56:55;;;;;;;107.63;63.50;;;;;;;1.99;100.00;100088.78;5092810;28;20080;-78
2022/12/04 07:59:21;;;;;;;107.55;63.72;;;;;;;2.05;100.00;100090.44;5092495;28;20038;-78
2022/12/04 08:01:46;;;;;;;98.60;59.63;;;;;;;2.10;100.00;100093.00;5092445;28;20425;-78
2022/12/04 08:04:11;;;;;;;96.32;57.53;;;;;;;2.14;100.00;100086.97;5092341;28;20074;-78
2022/12/04 08:06:37;;;;;;;127.68;78.68;;;;;;;2.12;100.00;100081.84;5092504;28;20047;-78
2022/12/04 08:09:05;;;;;;;114.90;77.65;;;;;;;2.27;100.00;100090.34;5092237;28;20035;-78
2022/12/04 08:11:31;;;;;;;110.70;64.03;;;;;;;2.21;100.00;100086.09;5091904;28;20036;-78
2022/12/04 08:13:59;;;;;;;104.20;62.35;;;;;;;2.15;100.00;100073.25;5092525;28;20016;-77
2022/12/04 08:16:25;;;;;;;89.72;54.75;;;;;;;2.10;100.00;100075.00;5092127;28;20027;-78
2022/12/04 08:18:52;;;;;;;114.63;68.80;;;;;;;2.10;100.00;100082.72;5092230;28;20024;-78
2022/12/04 08:21:20;;;;;;;103.50;63.38;;;;;;;2.02;100.00;100075.03;5091976;28;20077;-78
2022/12/04 08:23:47;;;;;;;103.07;62.13;;;;;;;2.07;100.00;100081.03;5092195;28;20024;-78
2022/12/04 08:26:13;;;;;;;102.28;58.95;;;;;;;2.12;100.00;100088.72;5092176;28;20024;-78
2022/12/04 08:28:40;;;;;;;96.47;58.10;;;;;;;2.08;100.00;100077.59;5092373;28;20032;-78
2022/12/04 08:31:09;;;;;;;96.53;57.40;;;;;;;2.10;100.00;100081.00;5092205;28;20028;-77
2022/12/04 08:33:34;;;;;;;104.68;65.07;;;;;;;2.18;100.00;100086.94;5091958;28;20463;-78
2022/12/04 08:36:00;;;;;;;98.18;57.60;;;;;;;2.16;100.00;100078.41;5092042;28;20017;-78
2022/12/04 08:38:25;;;;;;;103.38;64.13;;;;;;;2.30;100.00;100093.75;5092040;28;20016;-78
2022/12/04 08:40:51;;;;;;;114.57;65.22;;;;;;;2.35;100.00;100092.00;5092051;28;20062;-78
2022/12/04 08:43:16;;;;;;;113.40;67.03;;;;;;;2.36;100.00;100091.16;5091795;28;20018;-78
2022/12/04 08:45:41;;;;;;;96.78;56.58;;;;;;;2.37;100.00;100092.84;5092373;28;20024;-78
2022/12/04 08:48:06;;;;;;;104.70;59.22;;;;;;;2.33;100.00;100083.44;5092065;28;20031;-78
2022/12/04 08:50:32;;;;;;;99.32;59.55;;;;;;;2.47;100.00;100093.63;5091398;28;20046;-78
2022/12/04 08:52:57;;;;;;;106.45;64.45;;;;;;;2.48;100.00;100101.34;5091856;28;20020;-78
2022/12/04 08:55:23;;;;;;;96.70;59.33;;;;;;;2.50;100.00;100099.63;5091631;28;20028;-78
2022/12/04 08:57:50;;;;;;;114.32;64.57;;;;;;;2.50;100.00;100094.47;5092030;28;20073;-78
2022/12/04 09:00:16;;;;;;;101.40;58.53;;;;;;;2.56;100.00;100096.16;5091629;28;20336;-78
2022/12/04 09:02:41;;;;;;;90.63;54.88;;;;;;;2.58;100.00;100096.16;5091526;28;20042;-77
2022/12/04 09:05:07;;;;;;;96.40;57.47;;;;;;;2.59;100.00;100103.84;5094333;28;20015;-78
2022/12/04 09:07:32;;;;;;;100.25;61.60;;;;;;;2.52;100.00;100091.88;5096014;28;20115;-78
2022/12/04 09:09:57;;;;;;;112.20;66.18;;;;;;;2.62;100.00;100101.25;5096078;28;20051;-78
2022/12/04 09:12:23;;;;;;;107.15;64.10;;;;;;;2.68;100.00;100118.34;5095697;28;20060;-78
2022/12/04 09:14:48;;;;;;;91.10;55.15;;;;;;;2.68;100.00;100114.06;5095637;28;20023;-77
2022/12/04 09:17:13;;;;;;;101.50;59.80;;;;;;;2.66;100.00;100099.53;5095471;28;20051;-78
2022/12/04 09:19:39;;;;;;;94.95;55.28;;;;;;;2.79;100.00;100108.00;5095658;28;20077;-78
2022/12/04 09:22:04;;;;;;;79.93;51.20;;;;;;;2.69;100.00;100087.47;5095876;28;20016;-78
2022/12/04 09:24:30;;;;;;;89.93;56.20;;;;;;;2.73;100.00;100096.88;5095329;28;20103;-78
2022/12/04 09:26:55;;;;;;;100.15;61.40;;;;;;;2.74;100.00;100080.59;5095621;28;20019;-78
2022/12/04 09:29:20;;;;;;;83.93;52.28;;;;;;;2.84;100.00;100095.94;5095316;28;20031;-78
2022/12/04 09:31:46;;;;;;;97.70;57.58;;;;;;;2.75;100.00;100081.44;5095445;28;20126;-78
2022/12/04 09:34:11;;;;;;;91.95;56.55;;;;;;;2.84;100.00;100075.38;5095278;28;20012;-78
2022/12/04 09:36:37;;;;;;;89.05;55.03;;;;;;;2.91;100.00;100087.31;5095110;28;20024;-78
2022/12/04 09:39:02;;;;;;;89.22;53.17;;;;;;;2.87;100.00;100068.50;5095427;28;20027;-78
2022/12/04 09:41:52;;;;;;;89.80;55.55;;;;;;;3.06;100.00;100092.31;5095092;28;20024;-78
2022/12/04 09:44:42;;;;;;;87.15;53.95;;;;;;;3.17;100.00;100087.09;5095078;28;20463;-78
2022/12/04 09:47:28;;;;;;;83.55;51.20;;;;;;;3.20;100.00;100087.91;5095170;28;20031;-78
2022/12/04 09:50:17;;;;;;;84.88;55.10;;;;;;;3.21;100.00;100081.91;5095167;28;20111;-78
2022/12/04 09:52:57;;;;;;;82.10;50.95;;;;;;;3.28;100.00;100074.09;5095115;28;20020;-78
2022/12/04 09:55:25;;;;;;;88.87;54.67;;;;;;;3.29;100.00;100079.25;5095113;28;20024;-78
2022/12/04 09:57:54;;;;;;;83.72;50.78;;;;;;;3.38;100.00;100086.03;5076911;28;20379;-78
2022/12/04 10:00:19;;;;;;;79.28;50.47;;;;;;;3.39;100.00;100067.97;5094869;28;20107;-78
2022/12/04 10:02:57;;;;;;;79.40;51.67;;;;;;;3.51;100.00;100079.88;5094682;28;20131;-78
2022/12/04 10:05:35;;;;;;;80.13;53.15;;;;;;;3.41;100.00;100067.94;5094663;28;20020;-78
2022/12/04 10:08:06;;;;;;;86.38;51.78;;;;;;;3.55;100.00;100071.25;5095013;28;20152;-78
2022/12/04 10:10:32;;;;;;;;;;;;;;;3.76;100.00;100075.28;5094860;28;20027;-78
2022/12/04 10:13:15;;;;;;;87.45;52.10;;;;;;;3.82;100.00;100067.47;5094793;28;19908;-78
2022/12/04 10:15:53;;;;;;;89.00;50.35;;;;;;;3.86;100.00;100063.13;5093881;28;20031;-78
2022/12/04 10:18:37;;;;;;;82.82;51.22;;;;;;;3.94;100.00;100051.00;5094637;28;20095;-78
2022/12/04 10:21:28;;;;;;;90.10;54.88;;;;;;;4.05;100.00;100059.47;5094967;28;20032;-78
2022/12/04 10:23:59;;;;;;;76.93;46.97;;;;;;;4.12;100.00;100053.31;4992534;28;20113;-78
2022/12/04 10:26:40;;;;;;;81.30;49.78;;;;;;;4.33;100.00;100049.59;4992273;28;20085;-78
2022/12/04 10:29:13;;;;;;;76.90;47.78;;;;;;;4.48;100.00;100051.09;4992376;28;20377;-77
2022/12/04 10:31:39;;;;;;;74.78;45.58;;;;;;;4.55;100.00;100055.31;4992209;28;20080;-78
2022/12/04 10:34:15;;;;;;;82.10;52.58;;;;;;;4.69;100.00;100045.59;4992337;28;20029;-78
2022/12/04 10:36:44;;;;;;;76.93;48.17;;;;;;;4.69;100.00;100037.84;4991904;28;20038;-78
2022/12/04 10:39:22;;;;;;;78.60;51.47;;;;;;;4.70;100.00;100036.97;4992309;28;20030;-78
2022/12/04 10:41:57;;;;;;;69.28;41.85;;;;;;;4.79;100.00;100048.88;4992264;28;20286;-78
2022/12/04 10:44:22;;;;;;;271.88;147.18;;;;;;;4.91;100.00;100040.91;4991988;28;20657;-78
2022/12/04 10:46:51;;;;;;;81.30;50.90;;;;;;;5.02;100.00;100052.81;4992146;28;20033;-78
2022/12/04 10:49:21;;;;;;;108.07;65.45;;;;;;;4.96;100.00;100046.00;4991920;28;20030;-78
2022/12/04 10:51:47;;;;;;;99.32;55.92;;;;;;;4.95;100.00;100042.56;4992108;28;20062;-78
2022/12/04 10:54:34;;;;;;;85.63;48.95;;;;;;;5.06;100.00;100037.25;4991986;28;20426;-78
2022/12/04 10:57:12;;;;;;;71.93;44.22;;;;;;;5.06;100.00;100041.56;4991963;28;20030;-78
2022/12/04 10:59:47;;;;;;;81.75;49.42;;;;;;;4.96;100.00;100030.53;4991625;28;20034;-78
2022/12/04 11:02:21;;;;;;;87.22;51.58;;;;;;;5.09;100.00;100033.72;5093798;28;20117;-78
2022/12/04 11:04:55;;;;;;;74.40;47.58;;;;;;;5.11;100.00;100016.50;5093712;28;20497;-78
2022/12/04 11:07:25;;;;;;;69.32;43.88;;;;;;;5.21;100.00;100024.03;5093398;28;20079;-78
2022/12/04 11:09:56;;;;;;;71.05;42.97;;;;;;;5.25;100.00;100022.25;5093476;28;20016;-78
2022/12/04 11:12:23;;;;;;;66.53;39.17;;;;;;;5.18;100.00;100007.72;5093468;28;20028;-79
2022/12/04 11:14:59;;;;;;;80.38;46.20;;;;;;;5.22;100.00;100015.44;5093788;28;20027;-79
2022/12/04 11:17:24;;;;;;;76.43;49.45;;;;;;;5.37;100.00;100021.16;5075053;28;20052;-79
2022/12/04 11:20:01;;;;;;;71.07;43.55;;;;;;;5.38;100.00;100002.19;5093722;28;20097;-79
2022/12/04 11:22:27;;;;;;;60.13;41.20;;;;;;;5.46;100.00;100008.06;5092812;28;20038;-76
2022/12/04 11:24:55;;;;;;;70.80;43.25;;;;;;;5.44;100.00;100010.69;5093102;28;20016;-76
2022/12/04 11:27:34;;;;;;;70.10;48.28;;;;;;;5.41;100.00;100002.16;5092306;28;20024;-76